.
WxDataArchive / Data Records for 2011-06-10
2011-06-09 June 2011 2011-06-11

Data Records for Friday, 10 June 2011

Time	Temp	Chill	HIndex	Humid	Dewpt	 Wind 	HiWind	WindDir	Rain 	Barom 
-----	----	-----	------	-----	-----	------	------	-------	-----	----- 
00:00	69.9	69.9	69.9	78	62.7	0	0	---	0.00	29.973 
00:05	69.9	69.9	69.9	79	63.1	0	3	90	0.00	29.973 
00:10	69.8	69.8	69.8	79	63.0	0	0	---	0.00	29.973 
00:15	69.6	69.6	69.6	79	62.8	0	0	---	0.00	29.972 
00:20	69.4	69.4	69.4	80	63.0	0	0	---	0.00	29.972 
00:25	69.4	69.4	69.4	80	63.0	0	1	90	0.00	29.972 
00:30	69.3	69.3	69.3	81	63.2	0	2	90	0.00	29.971 
00:35	69.3	69.3	69.3	81	63.2	0	0	---	0.00	29.971 
00:40	69.1	69.1	69.1	81	63.0	0	0	---	0.00	29.971 
00:45	68.9	68.9	68.9	81	62.8	0	1	90	0.00	29.969 
00:50	68.8	68.8	68.8	82	63.1	0	1	90	0.00	29.969 
00:55	68.6	68.6	68.6	82	62.9	0	1	90	0.00	29.969 
01:00	68.6	68.6	68.6	82	62.9	0	2	90	0.00	29.963 
01:05	68.6	68.6	68.6	82	62.9	0	1	90	0.00	29.963 
01:10	68.4	68.4	68.4	82	62.7	0	0	---	0.00	29.963 
01:15	68.4	68.4	68.4	82	62.7	0	1	90	0.00	29.963 
01:20	68.4	68.4	68.4	82	62.7	0	2	90	0.00	29.963 
01:25	68.3	68.3	68.3	82	62.6	0	2	90	0.00	29.963 
01:30	68.3	68.3	68.3	82	62.6	0	2	90	0.00	29.966 
01:35	68.3	68.3	68.3	82	62.6	1	3	90	0.00	29.966 
01:40	68.1	68.1	68.1	82	62.4	1	3	90	0.00	29.966 
01:45	68.1	68.1	68.1	82	62.4	1	5	90	0.00	29.970 
01:50	67.9	67.9	67.9	82	62.2	1	5	90	0.00	29.970 
01:55	68.1	68.1	68.1	82	62.4	1	5	45	0.00	29.970 
02:00	68.1	68.1	68.1	82	62.4	2	4	45	0.00	29.967 
02:05	68.3	68.3	68.3	82	62.6	2	4	90	0.00	29.967 
02:10	68.3	68.3	68.3	83	62.9	2	7	90	0.00	29.967 
02:15	68.3	68.3	68.3	83	62.9	2	7	90	0.00	29.966 
02:20	68.3	68.3	68.3	84	63.3	2	5	68	0.00	29.966 
02:25	68.1	68.1	68.1	84	63.1	2	5	68	0.00	29.966 
02:30	67.9	67.9	67.9	85	63.2	3	6	45	0.00	29.973 
02:35	67.9	67.9	67.9	86	63.5	3	9	90	0.00	29.973 
02:40	67.6	67.6	67.6	86	63.3	4	9	112	0.00	29.973 
02:45	67.3	67.3	67.3	87	63.3	3	7	90	0.00	29.962 
02:50	66.9	66.9	66.9	88	63.2	3	6	90	0.00	29.962 
02:55	66.6	66.6	66.6	88	62.9	3	9	112	0.00	29.962 
03:00	66.4	66.4	66.4	88	62.7	4	10	90	0.00	29.969 
03:05	66.1	66.1	66.1	88	62.4	3	7	90	0.00	29.969 
03:10	66.0	66.0	66.0	89	62.7	3	7	90	0.00	29.969 
03:15	65.8	65.8	65.8	89	62.5	3	7	90	0.00	29.966 
03:20	65.6	65.6	65.6	89	62.3	3	9	90	0.00	29.966 
03:25	65.3	65.3	65.3	89	62.0	4	7	90	0.00	29.966 
03:30	65.0	65.0	65.0	89	61.7	3	5	90	0.00	29.977 
03:35	64.8	64.8	64.8	89	61.5	4	9	90	0.00	29.977 
03:40	64.7	64.7	64.7	89	61.4	3	7	90	0.00	29.977 
03:45	64.5	64.5	64.5	89	61.2	3	5	90	0.00	29.977 
03:50	64.5	64.5	64.5	89	61.2	2	5	90	0.00	29.977 
03:55	64.3	64.3	64.3	89	61.0	2	4	90	0.00	29.977 
04:00	64.2	64.2	64.2	88	60.6	3	7	112	0.00	29.967 
04:05	64.0	64.0	64.0	88	60.4	2	5	112	0.00	29.967 
04:10	63.9	63.9	63.9	88	60.3	2	7	112	0.00	29.967 
04:15	63.7	63.7	63.7	88	60.1	3	9	68	0.00	29.968 
04:20	63.4	63.4	63.4	88	59.8	4	7	90	0.00	29.968 
04:25	63.2	63.2	63.2	88	59.6	3	6	90	0.00	29.968 
04:30	63.1	63.1	63.1	89	59.8	4	10	90	0.00	29.966 
04:35	63.1	63.1	63.1	89	59.8	3	6	90	0.00	29.966 
04:40	63.1	63.1	63.1	89	59.8	2	7	90	0.00	29.966 
04:45	62.9	62.9	62.9	89	59.6	2	6	112	0.00	29.960 
04:50	62.7	62.7	62.7	89	59.4	3	10	90	0.00	29.960 
04:55	62.6	62.6	62.6	89	59.3	3	11	90	0.00	29.960 
05:00	62.6	62.6	62.6	89	59.3	3	6	90	0.00	29.966 
05:05	62.4	62.4	62.4	89	59.1	2	5	90	0.00	29.966 
05:10	62.3	62.3	62.3	90	59.3	3	5	90	0.00	29.966 
05:15	62.0	62.0	62.0	90	59.0	2	4	90	0.00	29.979 
05:20	61.8	61.8	61.8	90	58.8	1	4	68	0.00	29.979 
05:25	61.6	61.6	61.6	90	58.6	3	11	68	0.00	29.979 
05:30	61.5	61.5	61.5	90	58.5	2	5	90	0.00	29.987 
05:35	61.3	61.3	61.3	90	58.3	0	3	45	0.00	29.987 
05:40	61.3	61.3	61.3	90	58.3	0	0	---	0.00	29.987 
05:45	61.3	61.3	61.3	90	58.3	1	3	45	0.01	29.987 
05:50	61.0	61.0	61.0	90	58.0	3	6	112	0.00	29.987 
05:55	60.5	60.5	60.5	91	57.9	4	11	90	0.00	29.987 
06:00	60.2	60.2	60.2	91	57.6	4	9	90	0.01	29.971 
06:05	59.9	59.9	59.9	92	57.6	3	6	90	0.00	29.971 
06:10	59.8	59.8	59.8	92	57.5	3	7	90	0.00	29.971 
06:15	59.6	59.6	59.6	92	57.3	1	4	68	0.00	29.964 
06:20	59.5	59.5	59.5	92	57.2	2	9	90	0.00	29.964 
06:25	59.3	59.3	59.3	92	57.0	3	10	90	0.01	29.964 
06:30	59.0	59.0	59.0	93	57.0	3	7	68	0.01	29.978 
06:35	59.0	59.0	59.0	93	57.0	1	5	112	0.00	29.978 
06:40	58.9	58.9	58.9	93	56.9	1	4	112	0.05	29.978 
06:45	58.9	58.9	58.9	93	56.9	0	4	112	0.02	30.028 
06:50	58.9	58.9	58.9	93	56.9	0	1	112	0.01	30.028 
06:55	58.9	58.9	58.9	94	57.2	1	4	112	0.01	30.028 
07:00	58.7	58.7	58.7	94	57.0	1	3	112	0.01	30.001 
07:05	58.9	58.9	58.9	94	57.2	1	2	112	0.00	30.001 
07:10	58.7	58.7	58.7	94	57.0	2	6	112	0.01	30.001 
07:15	58.7	58.7	58.7	94	57.0	1	4	90	0.00	29.991 
07:20	58.7	58.7	58.7	95	57.3	2	4	68	0.00	29.991 
07:25	58.7	58.7	58.7	95	57.3	2	5	90	0.01	29.991 
07:30	58.7	58.7	58.7	95	57.3	3	5	90	0.02	29.970 
07:35	58.7	58.7	58.7	95	57.3	2	4	90	0.02	29.970 
07:40	58.7	58.7	58.7	95	57.3	2	5	90	0.01	29.970 
07:45	58.7	58.7	58.7	95	57.3	1	4	112	0.03	29.990 
07:50	58.7	58.7	58.7	95	57.3	1	4	112	0.01	29.990 
07:55	58.7	58.7	58.7	95	57.3	1	3	112	0.01	29.990 
08:00	58.7	58.7	58.7	95	57.3	1	3	112	0.01	30.005 
08:05	58.7	58.7	58.7	96	57.6	0	1	112	0.02	30.005 
08:10	58.7	58.7	58.7	96	57.6	0	2	112	0.00	30.005 
08:15	58.7	58.7	58.7	96	57.6	0	1	112	0.03	30.040 
08:20	58.9	58.9	58.9	96	57.8	0	1	112	0.02	30.040 
08:25	58.9	58.9	58.9	96	57.8	0	0	---	0.02	30.040 
08:30	58.9	58.9	58.9	96	57.8	0	2	112	0.02	30.040 
08:35	58.9	58.9	58.9	96	57.8	0	2	112	0.02	30.040 
08:40	58.9	58.9	58.9	96	57.8	0	2	112	0.01	30.040 
08:45	58.9	58.9	58.9	96	57.8	2	4	112	0.02	30.029 
08:50	58.9	58.9	58.9	96	57.8	1	4	45	0.03	30.029 
08:55	58.7	58.7	58.7	96	57.6	4	9	90	0.02	30.029 
09:00	58.6	58.6	58.6	96	57.5	4	7	90	0.02	29.979 
09:05	58.6	58.6	58.6	96	57.5	5	10	90	0.02	29.979 
09:10	58.4	58.4	58.4	96	57.3	6	11	90	0.01	29.979 
09:15	58.3	58.3	58.3	96	57.2	6	16	90	0.01	29.932 
09:20	58.4	58.4	58.4	96	57.3	4	10	90	0.00	29.932 
09:25	58.4	58.4	58.4	96	57.3	4	12	90	0.00	29.932 
09:30	58.7	58.7	58.7	96	57.6	3	7	90	0.00	29.950 
09:35	58.9	58.9	58.9	97	58.0	2	6	90	0.00	29.950 
09:40	59.0	59.0	59.0	97	58.1	3	10	112	0.00	29.950 
09:45	59.0	59.0	59.0	97	58.1	2	6	90	0.00	29.971 
09:50	59.3	59.3	59.3	97	58.4	2	5	112	0.00	29.971 
09:55	59.3	59.3	59.3	97	58.4	2	4	90	0.00	29.971 
10:00	59.6	59.6	59.6	97	58.7	1	3	90	0.00	29.979 
10:05	59.6	59.6	59.6	97	58.7	2	4	90	0.00	29.979 
10:10	59.6	59.6	59.6	97	58.7	2	5	90	0.00	29.979 
10:15	59.9	59.9	59.9	97	59.0	2	4	112	0.00	29.976 
10:20	60.1	60.1	60.1	94	58.4	2	5	112	0.00	29.976 
10:25	60.2	60.2	60.2	97	59.3	2	6	90	0.00	29.976 
10:30	60.4	60.4	60.4	97	59.5	2	5	68	0.00	29.976 
10:35	60.7	60.7	60.7	97	59.8	2	4	112	0.00	29.976 
10:40	60.7	60.7	60.7	97	59.8	3	6	68	0.00	29.976 
10:45	61.0	61.0	61.0	97	60.1	1	6	90	0.00	29.974 
10:50	61.2	61.2	61.2	97	60.3	1	4	90	0.00	29.974 
10:55	61.2	61.2	61.2	97	60.3	2	6	90	0.00	29.974 
11:00	61.3	61.3	61.3	97	60.4	2	5	90	0.00	29.967 
11:05	61.6	61.6	61.6	97	60.7	1	4	68	0.00	29.967 
11:10	61.8	61.8	61.8	97	60.9	1	3	68	0.00	29.967 
11:15	62.1	62.1	62.1	97	61.2	2	4	68	0.00	29.966 
11:20	62.3	62.3	62.3	97	61.4	2	4	68	0.00	29.966 
11:25	62.3	62.3	62.3	96	61.1	2	5	90	0.00	29.966 
11:30	62.3	62.3	62.3	96	61.1	2	9	90	0.00	29.966 
11:35	62.1	62.1	62.1	96	60.9	3	6	90	0.00	29.966 
11:40	62.1	62.1	62.1	96	60.9	3	10	90	0.00	29.966 
11:45	62.4	62.4	62.4	96	61.2	2	5	90	0.00	29.960 
11:50	62.4	62.4	62.4	96	61.2	2	6	90	0.00	29.960 
11:55	62.4	62.4	62.4	96	61.2	2	4	90	0.00	29.960 
12:00	62.4	62.4	62.4	96	61.2	1	3	90	0.00	29.971 
12:05	62.3	62.3	62.3	95	60.8	2	6	135	0.00	29.971 
12:10	62.4	62.4	62.4	95	60.9	2	7	68	0.00	29.971 
12:15	62.6	62.6	62.6	95	61.1	2	6	90	0.00	29.966 
12:20	62.6	62.6	62.6	95	61.1	4	10	90	0.00	29.966 
12:25	62.9	62.9	62.9	95	61.4	3	6	90	0.00	29.966 
12:30	63.2	63.2	63.2	94	61.4	3	8	112	0.00	29.951 
12:35	63.5	63.5	63.5	94	61.7	2	9	90	0.00	29.951 
12:40	63.7	63.7	63.7	94	61.9	3	6	90	0.00	29.951 
12:45	63.9	63.9	63.9	93	61.8	3	7	90	0.00	29.952 
12:50	64.2	64.2	64.2	93	62.1	3	5	90	0.00	29.952 
12:55	64.5	64.5	64.5	92	62.1	4	7	90	0.00	29.952 
13:00	65.2	65.2	65.2	92	62.8	1	4	90	0.00	29.945 
13:05	65.6	65.6	65.6	92	63.2	1	5	90	0.00	29.945 
13:10	65.8	65.8	65.8	90	62.8	2	5	90	0.00	29.945 
13:15	66.1	66.1	66.1	89	62.8	2	7	90	0.00	29.937 
13:20	66.4	66.4	66.4	89	63.1	2	6	90	0.00	29.937 
13:25	66.8	66.8	66.8	88	63.1	2	6	90	0.00	29.937 
13:30	67.3	67.3	67.3	88	63.6	2	4	90	0.00	29.928 
13:35	67.6	67.6	67.6	88	63.9	2	5	90	0.00	29.928 
13:40	67.8	67.8	67.8	88	64.1	2	6	90	0.00	29.928 
13:45	68.3	68.3	68.3	88	64.6	2	6	90	0.00	29.924 
13:50	68.8	68.8	68.8	87	64.8	2	6	90	0.00	29.924 
13:55	69.3	69.3	69.3	87	65.3	2	5	90	0.00	29.924 
14:00	69.9	69.9	69.9	87	65.8	3	6	90	0.00	29.906 
14:05	70.8	70.8	70.8	86	66.4	2	4	90	0.00	29.906 
14:10	71.6	71.6	71.6	86	67.2	2	9	90	0.00	29.906 
14:15	72.8	72.8	72.8	85	68.0	1	4	112	0.00	29.896 
14:20	73.7	73.7	73.7	83	68.2	1	4	90	0.00	29.896 
14:25	74.7	74.7	74.7	81	68.5	1	3	90	0.00	29.896 
14:30	75.4	75.4	76.1	80	68.8	1	4	112	0.00	29.889 
14:35	75.6	75.6	76.4	80	69.0	2	5	112	0.00	29.889 
14:40	76.1	76.1	77.1	80	69.5	2	7	112	0.00	29.889 
14:45	76.7	76.7	78.1	79	69.7	1	7	112	0.00	29.881 
14:50	77.4	77.4	79.3	78	70.0	1	4	112	0.00	29.881 
14:55	77.9	77.9	80.0	75	69.3	1	5	112	0.00	29.881 
15:00	78.3	78.3	80.4	70	67.7	2	6	112	0.00	29.875 
15:05	78.8	78.8	81.2	71	68.6	1	4	68	0.00	29.875 
15:10	79.8	79.8	82.6	70	69.1	1	4	90	0.00	29.875 
15:15	80.5	80.5	83.3	67	68.5	1	5	112	0.00	29.873 
15:20	81.1	81.1	84.6	69	69.9	1	5	112	0.00	29.873 
15:25	81.6	81.6	84.9	66	69.1	2	5	90	0.00	29.873 
15:30	81.6	81.6	84.9	66	69.1	1	4	90	0.00	29.868 
15:35	81.4	81.4	84.4	65	68.5	2	9	90	0.00	29.868 
15:40	81.6	81.6	84.7	65	68.7	2	9	90	0.00	29.868 
15:45	81.6	81.6	84.9	66	69.1	1	5	45	0.00	29.866 
15:50	81.8	81.8	85.3	66	69.3	1	4	112	0.00	29.866 
15:55	82.0	82.0	85.6	66	69.5	0	2	90	0.00	29.866 
16:00	82.2	82.2	85.9	66	69.7	1	3	90	0.00	29.868 
16:05	82.2	82.2	86.1	67	70.1	0	2	292	0.00	29.868 
16:10	82.4	82.4	86.3	66	69.9	0	1	292	0.00	29.868 
16:15	82.4	82.4	86.1	65	69.4	1	3	292	0.00	29.860 
16:20	82.4	82.4	86.3	66	69.9	0	2	292	0.00	29.860 
16:25	82.4	82.4	85.8	64	69.0	0	2	292	0.00	29.860 
16:30	82.6	82.6	86.6	66	70.1	0	1	292	0.00	29.856 
16:35	83.0	83.0	86.9	64	69.5	0	2	292	0.00	29.856 
16:40	83.8	83.8	87.7	62	69.4	0	2	292	0.00	29.856 
16:45	84.0	84.0	88.1	62	69.5	0	2	292	0.00	29.852 
16:50	84.0	84.0	88.1	62	69.5	0	2	292	0.00	29.852 
16:55	83.8	83.8	87.7	62	69.4	0	3	22	0.00	29.852 
17:00	83.6	83.6	87.9	64	70.1	0	1	22	0.00	29.850 
17:05	83.0	83.0	87.3	66	70.4	0	1	22	0.00	29.850 
17:10	82.4	82.4	86.7	68	70.8	0	3	45	0.00	29.850 
17:15	81.6	81.6	85.9	71	71.3	0	4	135	0.00	29.843 
17:20	80.9	80.9	84.8	72	71.0	1	5	135	0.00	29.843 
17:25	79.6	79.6	82.6	73	70.2	1	4	135	0.00	29.843 
17:30	78.5	78.5	81.0	76	70.3	1	4	22	0.00	29.860 
17:35	77.4	77.4	79.3	78	70.0	2	6	292	0.00	29.860 
17:40	76.7	76.7	78.1	80	70.0	2	9	112	0.00	29.860 
17:45	76.0	76.0	76.7	83	70.4	0	2	45	0.04	29.846 
17:50	75.3	75.3	75.2	86	70.8	1	3	45	0.03	29.846 
17:55	74.4	74.4	74.4	87	70.3	0	4	112	0.07	29.846 
18:00	73.7	73.7	73.7	88	69.9	0	1	135	0.07	29.886 
18:05	73.0	73.0	73.0	89	69.6	0	4	112	0.03	29.886 
18:10	71.5	71.5	71.5	88	67.7	2	6	112	0.00	29.886 
18:15	70.4	70.4	70.4	89	67.0	1	4	90	0.00	29.879 
18:20	69.8	69.8	69.8	90	66.7	2	5	90	0.00	29.879 
18:25	69.3	69.3	69.3	90	66.2	0	2	90	0.00	29.879 
18:30	68.9	68.9	68.9	91	66.2	2	5	90	0.00	29.901 
18:35	68.6	68.6	68.6	91	65.9	3	6	90	0.00	29.901 
18:40	68.4	68.4	68.4	92	66.0	0	3	90	0.00	29.901 
18:45	68.3	68.3	68.3	92	65.9	0	3	90	0.00	29.886 
18:50	68.6	68.6	68.6	92	66.2	1	5	112	0.01	29.886 
18:55	68.6	68.6	68.6	92	66.2	0	4	112	0.00	29.886 
19:00	68.6	68.6	68.6	92	66.2	2	4	112	0.00	29.876 
19:05	68.4	68.4	68.4	92	66.0	2	5	135	0.00	29.876 
19:10	68.3	68.3	68.3	92	65.9	2	6	90	0.00	29.876 
19:15	67.9	67.9	67.9	92	65.5	3	8	112	0.00	29.887 
19:20	67.6	67.6	67.6	92	65.2	3	7	112	0.00	29.887 
19:25	67.6	67.6	67.6	92	65.2	2	5	90	0.00	29.887 
19:30	67.4	67.4	67.4	92	65.0	2	9	90	0.00	29.900 
19:35	67.3	67.3	67.3	92	64.9	1	4	90	0.00	29.900 
19:40	67.4	67.4	67.4	92	65.0	1	3	90	0.00	29.900 
19:45	67.4	67.4	67.4	91	64.7	2	7	90	0.00	29.893 
19:50	67.4	67.4	67.4	91	64.7	2	5	90	0.00	29.893 
19:55	67.4	67.4	67.4	91	64.7	2	6	112	0.00	29.893 
20:00	67.3	67.3	67.3	90	64.3	2	5	90	0.00	29.878 
20:05	67.1	67.1	67.1	91	64.4	2	7	90	0.00	29.878 
20:10	67.1	67.1	67.1	91	64.4	3	7	90	0.00	29.878 
20:15	67.1	67.1	67.1	91	64.4	2	7	112	0.00	29.886 
20:20	67.1	67.1	67.1	91	64.4	2	6	90	0.00	29.886 
20:25	67.1	67.1	67.1	91	64.4	3	8	90	0.00	29.886 
20:30	66.9	66.9	66.9	91	64.2	4	7	90	0.00	29.888 
20:35	66.9	66.9	66.9	91	64.2	4	10	112	0.00	29.888 
20:40	66.9	66.9	66.9	91	64.2	2	5	90	0.00	29.888 
20:45	66.9	66.9	66.9	91	64.2	2	6	90	0.00	29.888 
20:50	66.9	66.9	66.9	91	64.2	3	10	90	0.00	29.888 
20:55	66.8	66.8	66.8	92	64.4	2	6	90	0.00	29.888 
21:00	66.8	66.8	66.8	92	64.4	2	7	90	0.00	29.882 
21:05	66.6	66.6	66.6	92	64.2	3	7	90	0.00	29.882 
21:10	66.6	66.6	66.6	92	64.2	2	5	90	0.00	29.882 
21:15	66.6	66.6	66.6	92	64.2	2	6	90	0.00	29.887 
21:20	66.4	66.4	66.4	92	64.0	1	4	90	0.00	29.887 
21:25	66.4	66.4	66.4	92	64.0	2	5	90	0.00	29.887 
21:30	66.3	66.3	66.3	92	63.9	1	5	90	0.00	29.887 
21:35	66.3	66.3	66.3	92	63.9	2	6	112	0.00	29.887 
21:40	66.3	66.3	66.3	92	63.9	2	5	112	0.00	29.887 
21:45	66.3	66.3	66.3	92	63.9	2	6	112	0.00	29.882 
21:50	66.1	66.1	66.1	92	63.7	3	6	112	0.00	29.882 
21:55	66.1	66.1	66.1	92	63.7	1	4	90	0.00	29.882 
22:00	66.1	66.1	66.1	92	63.7	2	5	112	0.00	29.899 
22:05	66.3	66.3	66.3	92	63.9	2	7	112	0.00	29.899 
22:10	66.3	66.3	66.3	93	64.2	2	7	90	0.00	29.899 
22:15	66.1	66.1	66.1	92	63.7	2	6	90	0.00	29.906 
22:20	66.0	66.0	66.0	92	63.6	2	6	90	0.00	29.906 
22:25	66.0	66.0	66.0	91	63.3	2	6	90	0.00	29.906 
22:30	66.0	66.0	66.0	91	63.3	2	6	90	0.00	29.921 
22:35	65.8	65.8	65.8	91	63.1	2	5	68	0.00	29.921 
22:40	66.0	66.0	66.0	91	63.3	1	4	68	0.00	29.921 
22:45	66.0	66.0	66.0	91	63.3	1	4	68	0.00	29.939 
22:50	66.0	66.0	66.0	91	63.3	2	7	68	0.00	29.939 
22:55	65.6	65.6	65.6	90	62.6	3	7	112	0.00	29.939 
23:00	65.5	65.5	65.5	91	62.8	3	7	90	0.00	29.942 
23:05	65.3	65.3	65.3	91	62.6	3	6	90	0.00	29.942 
23:10	65.2	65.2	65.2	91	62.5	2	9	90	0.00	29.942 
23:15	65.2	65.2	65.2	91	62.5	2	7	90	0.00	29.948 
23:20	65.2	65.2	65.2	91	62.5	3	6	68	0.00	29.948 
23:25	65.0	65.0	65.0	92	62.6	3	7	68	0.00	29.948 
23:30	65.0	65.0	65.0	92	62.6	2	4	68	0.00	29.940 
23:35	65.0	65.0	65.0	92	62.6	1	5	90	0.00	29.940 
23:40	65.0	65.0	65.0	92	62.6	2	5	90	0.00	29.940 
23:45	65.0	65.0	65.0	92	62.6	2	4	90	0.00	29.929 
23:50	65.0	65.0	65.0	92	62.6	1	3	90	0.00	29.929 
23:55	65.0	65.0	65.0	92	62.6	1	4	90	0.00	29.929 

CoCoRaHS
IN-AL-39
A2 Web Hosting
Creative Commons License
GoDaddy
search engine by freefind advanced

loaded 2018-11-13 17:03:13 • last modified 2010-11-18 10:43:29
Privacy PolicyDisclaimer
• wx.awcolley.com is powered by PmWiki v.2002016 •
• all content (unless otherwise noted) © 2018 A W Colley